Time;durP1;ratioP1;P1;durP2;ratioP2;P2;SDS_P1;SDS_P2;PMS_P1;PMS_P2;Temp;Humidity;BMP_temperature;BMP_pressure;BME280_temperature;BME280_humidity;BME280_pressure;Samples;Min_cycle;Max_cycle;Signal;HPM_P1;HPM_P2
2021/01/06 00:01:03;;;;;;;9.00;5.65;;;;;;;6.95;100.00;100857.39;1775226;80;21118;-60
2021/01/06 00:03:30;;;;;;;11.70;5.70;;;;;;;6.93;100.00;100861.88;1763409;81;21097;-62
2021/01/06 00:06:01;;;;;;;7.90;5.70;;;;;;;6.79;100.00;100864.79;1775356;80;21099;-59
2021/01/06 00:08:28;;;;;;;12.40;5.42;;;;;;;6.79;100.00;100864.79;1763468;81;21200;-61
2021/01/06 00:10:57;;;;;;;8.85;5.58;;;;;;;6.71;100.00;100864.92;1775171;80;21087;-60
2021/01/06 00:13:25;;;;;;;9.60;5.97;;;;;;;6.69;100.00;100889.38;1763516;81;21562;-60
2021/01/06 00:15:53;;;;;;;10.43;6.15;;;;;;;6.64;100.00;100883.25;1775269;80;21587;-60
2021/01/06 00:18:23;;;;;;;8.53;5.65;;;;;;;6.62;100.00;100887.73;1763569;81;21133;-60
2021/01/06 00:20:50;;;;;;;9.73;5.65;;;;;;;6.53;100.00;100890.98;1751473;80;21376;-60
2021/01/06 00:23:18;;;;;;;9.63;6.47;;;;;;;6.53;100.00;100890.98;1754809;81;21085;-61
2021/01/06 00:25:48;;;;;;;11.95;6.80;;;;;;;6.52;100.00;100894.55;1771341;81;21101;-60
2021/01/06 00:28:17;;;;;;;9.15;6.25;;;;;;;6.51;100.00;100890.57;1754869;81;21117;-60
2021/01/06 00:30:52;;;;;;;9.75;6.25;;;;;;;6.50;100.00;100902.99;1771499;81;21257;-61
2021/01/06 00:33:24;;;;;;;10.45;6.47;;;;;;;6.48;100.00;100900.80;1754959;81;21657;-60
2021/01/06 00:35:58;;;;;;;10.72;6.72;;;;;;;6.36;100.00;100896.55;1771174;81;21194;-60
2021/01/06 00:38:26;;;;;;;9.20;6.00;;;;;;;6.36;100.00;100896.55;1785435;80;21204;-60
2021/01/06 00:40:54;;;;;;;8.83;6.10;;;;;;;6.35;100.00;100896.59;1821875;78;21172;-60
2021/01/06 00:43:22;;;;;;;11.85;6.78;;;;;;;6.28;100.00;100887.34;1821999;78;21019;-60
2021/01/06 00:45:50;;;;;;;10.23;6.50;;;;;;;6.24;100.00;100897.61;1821936;78;21366;-60
2021/01/06 00:48:19;;;;;;;10.85;7.10;;;;;;;6.21;100.00;100891.00;1821869;78;21106;-60
2021/01/06 00:50:47;;;;;;;11.88;7.85;;;;;;;6.18;100.00;100895.05;1822000;78;20931;-60
2021/01/06 00:53:22;;;;;;;13.85;8.10;;;;;;;6.16;100.00;100904.84;1821864;78;21062;-61
2021/01/06 00:55:51;;;;;;;16.90;8.47;;;;;;;6.14;100.00;100907.52;1790516;78;21050;-61
2021/01/06 00:58:19;;;;;;;14.83;8.50;;;;;;;6.11;100.00;100904.03;1821860;78;21347;-59
2021/01/06 01:00:48;;;;;;;11.83;8.15;;;;;;;6.08;100.00;100913.37;1790092;78;21086;-60
2021/01/06 01:03:16;;;;;;;12.03;8.58;;;;;;;6.04;100.00;100915.64;1821955;78;21055;-60
2021/01/06 01:05:47;;;;;;;13.22;8.85;;;;;;;6.00;100.00;100916.99;1821981;78;21141;-61
2021/01/06 01:08:14;;;;;;;13.28;8.55;;;;;;;5.98;100.00;100920.12;1821931;78;21121;-60
2021/01/06 01:10:46;;;;;;;15.90;9.60;;;;;;;5.95;100.00;100922.83;1821876;78;21374;-60
2021/01/06 01:13:17;;;;;;;14.35;8.53;;;;;;;5.91;100.00;100921.12;1821219;78;21129;-60
2021/01/06 01:15:48;;;;;;;14.28;9.30;;;;;;;5.88;100.00;100922.49;1821866;78;21129;-60
2021/01/06 01:18:21;;;;;;;14.93;9.80;;;;;;;5.85;100.00;100923.40;1821907;78;21122;-60
2021/01/06 01:20:54;;;;;;;15.13;10.32;;;;;;;5.80;100.00;100920.36;1821843;78;21003;-60
2021/01/06 01:23:25;;;;;;;17.95;10.88;;;;;;;5.72;100.00;100914.69;1827668;78;21181;-60
2021/01/06 01:25:53;;;;;;;18.02;10.93;;;;;;;5.68;100.00;100929.37;1827847;78;21110;-60
2021/01/06 01:28:21;;;;;;;16.07;10.50;;;;;;;5.61;100.00;100935.20;1827987;78;21057;-60
2021/01/06 01:30:50;;;;;;;16.02;10.53;;;;;;;5.57;100.00;100930.39;1827879;78;21062;-59
2021/01/06 01:33:19;;;;;;;15.90;10.65;;;;;;;5.54;100.00;100931.76;1828063;78;21027;-60
2021/01/06 01:35:46;;;;;;;16.12;10.30;;;;;;;5.51;100.00;100937.09;1828015;78;21428;-60
2021/01/06 01:38:17;;;;;;;16.70;11.50;;;;;;;5.51;100.00;100940.20;1774063;78;21134;-60
2021/01/06 01:40:45;;;;;;;19.48;10.38;;;;;;;5.51;100.00;100937.55;1760495;81;21165;-60
2021/01/06 01:43:17;;;;;;;18.45;11.00;;;;;;;5.49;100.00;100942.01;1774596;80;21171;-60
2021/01/06 01:45:50;;;;;;;16.05;10.65;;;;;;;5.49;100.00;100943.34;1760504;81;21125;-60
2021/01/06 01:48:35;;;;;;;16.15;10.58;;;;;;;5.49;100.00;100943.34;1774615;80;21395;-60
2021/01/06 01:51:29;;;;;;;16.17;10.63;;;;;;;5.48;100.00;100944.23;1760632;81;21120;-60
2021/01/06 01:54:02;;;;;;;17.40;10.00;;;;;;;5.47;100.00;100952.64;1683344;81;21167;-58
2021/01/06 01:56:50;;;;;;;16.55;9.85;;;;;;;5.48;100.00;100947.76;1760509;81;21410;-60
2021/01/06 01:59:32;;;;;;;16.25;10.45;;;;;;;5.47;100.00;100945.14;1760626;81;21221;-59
2021/01/06 02:02:05;;;;;;;18.27;10.20;;;;;;;5.42;100.00;100942.08;1774546;80;21715;-61
2021/01/06 02:04:41;;;;;;;16.45;9.90;;;;;;;5.43;100.00;100938.52;1760500;81;21157;-60
2021/01/06 02:07:15;;;;;;;;;;;;;;;5.44;100.00;100941.62;1763087;81;21070;-60
2021/01/06 02:10:09;;;;;;;17.32;9.90;;;;;;;5.45;100.00;100937.16;1758855;81;20222;-60
2021/01/06 02:12:45;;;;;;;14.80;9.93;;;;;;;5.44;100.00;100933.64;1774703;80;21107;-60
2021/01/06 02:15:47;;;;;;;16.55;10.48;;;;;;;5.47;100.00;100938.48;1760447;81;21179;-60
2021/01/06 02:18:16;;;;;;;16.23;9.48;;;;;;;5.47;100.00;100938.48;1774587;80;21115;-60
2021/01/06 02:21:10;;;;;;;13.45;9.05;;;;;;;5.49;100.00;100942.01;1760349;81;21207;-60
2021/01/06 02:23:37;;;;;;;15.72;9.35;;;;;;;5.49;100.00;100945.53;1774466;80;21075;-60
2021/01/06 02:26:05;;;;;;;16.17;9.78;;;;;;;5.51;100.00;100948.19;1760527;81;21097;-60
2021/01/06 02:28:33;;;;;;;16.50;9.55;;;;;;;5.51;100.00;100948.19;1748638;80;21453;-60
2021/01/06 02:31:00;;;;;;;12.50;8.43;;;;;;;5.50;100.00;100955.73;1760427;81;21081;-59
2021/01/06 02:33:28;;;;;;;16.45;9.03;;;;;;;5.50;100.00;100959.73;1774538;80;21063;-61
2021/01/06 02:35:56;;;;;;;17.42;8.73;;;;;;;5.48;100.00;100965.05;1760482;81;21042;-60
2021/01/06 02:38:24;;;;;;;13.55;8.63;;;;;;;5.48;100.00;100969.50;1806987;79;21104;-60
2021/01/06 02:40:53;;;;;;;13.13;8.70;;;;;;;5.47;100.00;100968.60;1812074;79;21380;-60
2021/01/06 02:43:23;;;;;;;14.20;8.50;;;;;;;5.47;100.00;100974.39;1812079;79;21488;-61
2021/01/06 02:45:50;;;;;;;14.33;8.60;;;;;;;5.47;100.00;100973.92;1811748;79;21476;-61
2021/01/06 02:48:18;;;;;;;15.03;8.85;;;;;;;5.46;100.00;100977.48;1812014;79;21127;-61
2021/01/06 02:50:49;;;;;;;17.52;8.65;;;;;;;5.44;100.00;100989.48;1812037;79;21116;-60
2021/01/06 02:53:27;;;;;;;15.72;9.30;;;;;;;5.42;100.00;100995.27;1812169;79;22024;-60
2021/01/06 02:55:55;;;;;;;16.60;9.03;;;;;;;5.38;100.00;100990.84;1765357;79;21532;-60
2021/01/06 02:58:23;;;;;;;17.07;9.35;;;;;;;5.34;100.00;101001.08;1812128;79;21140;-60
2021/01/06 03:00:51;;;;;;;14.63;8.80;;;;;;;5.32;100.00;101004.67;1812031;79;21164;-60
2021/01/06 03:03:19;;;;;;;16.52;9.58;;;;;;;5.29;100.00;101004.23;1812106;79;21032;-60
2021/01/06 03:06:07;;;;;;;15.10;9.50;;;;;;;5.28;100.00;100998.49;1787551;79;22262;-60
2021/01/06 03:08:36;;;;;;;15.90;9.15;;;;;;;5.27;100.00;101002.05;1811216;79;21170;-60
2021/01/06 03:11:04;;;;;;;14.95;9.78;;;;;;;5.22;100.00;101005.20;1812081;79;21152;-61
2021/01/06 03:13:32;;;;;;;16.70;9.50;;;;;;;5.18;100.00;101013.64;1812111;79;21175;-60
2021/01/06 03:15:59;;;;;;;16.40;10.50;;;;;;;5.15;100.00;101017.66;1812139;79;21093;-60
2021/01/06 03:18:27;;;;;;;17.98;10.28;;;;;;;5.10;100.00;101014.16;1812023;79;21377;-61
2021/01/06 03:21:00;;;;;;;18.12;10.40;;;;;;;5.03;100.00;101010.66;1812010;79;21120;-61
2021/01/06 03:23:34;;;;;;;17.12;10.18;;;;;;;4.99;100.00;101019.56;1801294;78;21080;-60
2021/01/06 03:26:05;;;;;;;15.90;10.35;;;;;;;4.95;100.00;101031.08;1741945;82;21159;-61
2021/01/06 03:28:33;;;;;;;16.25;10.15;;;;;;;4.93;100.00;101031.54;1765517;81;21531;-59
2021/01/06 03:31:01;;;;;;;18.60;11.12;;;;;;;4.92;100.00;101039.08;1765517;81;21202;-62
2021/01/06 03:33:49;;;;;;;19.12;11.05;;;;;;;4.90;100.00;101047.51;1739762;81;21135;-60
2021/01/06 03:36:21;;;;;;;18.75;10.30;;;;;;;4.87;100.00;101040.45;1739729;81;21123;-60
2021/01/06 03:39:00;;;;;;;20.15;12.10;;;;;;;4.86;100.00;101043.55;1797002;79;21067;-60
2021/01/06 03:41:28;;;;;;;20.27;11.57;;;;;;;4.81;100.00;101040.05;1774141;80;21049;-59
2021/01/06 03:44:03;;;;;;;20.37;11.28;;;;;;;4.78;100.00;101040.07;1745427;79;21201;-60
2021/01/06 03:46:47;;;;;;;23.02;12.10;;;;;;;4.75;100.00;101036.54;1774088;79;21076;-60
2021/01/06 03:49:26;;;;;;;18.42;11.68;;;;;;;4.71;100.00;101043.63;1796922;79;21122;-60
2021/01/06 03:52:04;;;;;;;20.35;11.97;;;;;;;4.69;100.00;101045.42;1773381;80;21124;-60
2021/01/06 03:54:42;;;;;;;18.67;11.28;;;;;;;4.68;100.00;101051.63;1796929;79;21153;-60
2021/01/06 03:57:10;;;;;;;22.95;11.80;;;;;;;4.66;100.00;101051.66;1774188;80;21140;-60
2021/01/06 03:59:38;;;;;;;19.67;11.57;;;;;;;4.63;100.00;101048.12;1796774;79;21094;-60
2021/01/06 04:02:23;;;;;;;19.32;11.33;;;;;;;4.60;100.00;101047.68;1774160;80;21061;-60
2021/01/06 04:04:56;;;;;;;20.37;11.88;;;;;;;4.56;100.00;101045.50;1796853;79;21074;-60
2021/01/06 04:07:40;;;;;;;21.17;11.95;;;;;;;4.52;100.00;101047.72;1773958;80;21223;-60
2021/01/06 04:10:25;;;;;;;20.65;12.75;;;;;;;4.49;100.00;101054.37;1796962;79;21243;-60
2021/01/06 04:12:53;;;;;;;24.55;13.95;;;;;;;4.46;100.00;101049.08;1774038;80;21144;-61
2021/01/06 04:15:20;;;;;;;22.85;12.23;;;;;;;4.44;100.00;101053.52;1796917;79;21220;-60
2021/01/06 04:17:50;;;;;;;20.40;11.93;;;;;;;4.44;100.00;101057.50;1774139;80;21058;-60
2021/01/06 04:20:31;;;;;;;22.25;12.75;;;;;;;4.44;100.00;101062.38;1796958;79;21054;-60
2021/01/06 04:23:09;;;;;;;21.00;12.45;;;;;;;4.46;100.00;101067.66;1769318;79;21198;-60
2021/01/06 04:25:45;;;;;;;20.40;12.50;;;;;;;4.45;100.00;101060.59;1776700;80;21170;-60
2021/01/06 04:28:20;;;;;;;20.23;12.93;;;;;;;4.46;100.00;101069.00;1759639;81;21148;-60
2021/01/06 04:30:56;;;;;;;22.10;12.45;;;;;;;4.47;100.00;101076.07;1776068;80;21095;-59
2021/01/06 04:33:32;;;;;;;23.12;13.05;;;;;;;4.46;100.00;101076.96;1748701;81;21137;-60
2021/01/06 04:36:05;;;;;;;23.02;13.35;;;;;;;4.47;100.00;101091.14;1775712;80;21157;-60
2021/01/06 04:38:36;;;;;;;24.20;13.70;;;;;;;4.45;100.00;101097.77;1733156;81;21521;-60
2021/01/06 04:41:40;;;;;;;21.65;13.43;;;;;;;4.43;100.00;101096.89;1790900;80;21129;-60
2021/01/06 04:44:25;;;;;;;23.98;13.90;;;;;;;4.39;100.00;101103.11;1791092;80;21464;-60
2021/01/06 04:47:16;;;;;;;26.65;14.28;;;;;;;4.34;100.00;101106.23;1791162;80;21092;-60
2021/01/06 04:50:14;;;;;;;26.23;13.62;;;;;;;4.27;100.00;101106.23;1787924;80;21514;-59
2021/01/06 04:53:01;;;;;;;27.82;15.13;;;;;;;4.23;100.00;101108.92;1790987;80;21227;-60
2021/01/06 04:56:26;;;;;;;26.25;14.87;;;;;;;4.18;100.00;101111.58;1769019;80;21049;-60
2021/01/06 04:59:18;;;;;;;25.65;14.13;;;;;;;4.12;100.00;101114.26;1790924;80;21568;-59
2021/01/06 05:01:59;;;;;;;24.65;13.62;;;;;;;4.09;100.00;101114.23;1790992;80;21112;-60
2021/01/06 05:05:01;;;;;;;25.17;14.18;;;;;;;4.06;100.00;101110.27;1782226;80;21201;-59
2021/01/06 05:08:02;;;;;;;25.15;15.08;;;;;;;4.07;100.00;101122.64;1790869;80;21069;-60
2021/01/06 05:10:46;;;;;;;26.35;15.50;;;;;;;4.07;100.00;101113.36;1791061;80;21057;-60
2021/01/06 05:13:25;;;;;;;26.37;14.20;;;;;;;4.08;100.00;101119.10;1790928;80;21152;-60
2021/01/06 05:16:06;;;;;;;22.50;13.60;;;;;;;4.06;100.00;101123.11;1790972;80;21175;-60
2021/01/06 05:18:33;;;;;;;25.70;13.78;;;;;;;4.04;100.00;101123.56;1788231;80;21608;-59
2021/01/06 05:21:06;;;;;;;26.77;14.78;;;;;;;4.04;100.00;101122.66;1790874;80;21164;-60
2021/01/06 05:23:30;;;;;;;23.95;14.00;;;;;;;4.05;100.00;101121.77;1788416;80;21062;-60
2021/01/06 05:25:59;;;;;;;20.92;13.72;;;;;;;4.06;100.00;101126.19;1785896;80;21030;-60
2021/01/06 05:28:27;;;;;;;23.73;14.80;;;;;;;4.08;100.00;101124.41;1755763;80;21069;-60
2021/01/06 05:30:56;;;;;;;24.80;13.30;;;;;;;4.10;100.00;101127.98;1785950;80;21368;-61
2021/01/06 05:33:31;;;;;;;25.43;14.20;;;;;;;4.10;100.00;101131.95;1786055;80;21490;-61
2021/01/06 05:35:59;;;;;;;24.57;14.60;;;;;;;4.11;100.00;101140.36;1785883;80;20955;-59
2021/01/06 05:38:27;;;;;;;27.42;14.47;;;;;;;4.11;100.00;101150.97;1777429;80;21135;-61
2021/01/06 05:40:54;;;;;;;25.20;14.68;;;;;;;4.11;100.00;101154.95;1764182;81;21133;-60
2021/01/06 05:43:39;;;;;;;23.25;13.53;;;;;;;4.13;100.00;101164.66;1775716;80;21416;-60
2021/01/06 05:46:15;;;;;;;27.77;15.23;;;;;;;4.15;100.00;101164.67;1736466;81;21466;-60
2021/01/06 05:48:49;;;;;;;25.80;15.00;;;;;;;4.15;100.00;101169.52;1776722;80;21170;-60
2021/01/06 05:51:35;;;;;;;26.85;14.47;;;;;;;4.15;100.00;101169.98;1776859;80;21071;-60
2021/01/06 05:54:23;;;;;;;22.95;13.95;;;;;;;4.16;100.00;101177.05;1735123;81;21145;-60
2021/01/06 05:57:00;;;;;;;27.62;14.30;;;;;;;4.18;100.00;101183.66;1775741;80;21362;-60
2021/01/06 05:59:48;;;;;;;25.08;14.75;;;;;;;4.17;100.00;101182.80;1764240;81;21116;-60
2021/01/06 06:02:37;;;;;;;26.52;15.58;;;;;;;4.16;100.00;101183.69;1774910;80;21068;-59
2021/01/06 06:05:30;;;;;;;23.62;13.70;;;;;;;4.14;100.00;101190.31;1764269;81;21132;-60
2021/01/06 06:08:23;;;;;;;27.27;15.08;;;;;;;4.11;100.00;101192.11;1776808;80;21118;-60
2021/01/06 06:11:38;;;;;;;28.05;14.53;;;;;;;4.07;100.00;101203.58;1763569;81;21149;-60
2021/01/06 06:14:40;;;;;;;25.37;14.55;;;;;;;4.04;100.00;101207.56;1775782;80;21489;-60
2021/01/06 06:17:19;;;;;;;25.45;14.35;;;;;;;4.03;100.00;101223.05;1764254;81;21069;-60
2021/01/06 06:20:01;;;;;;;23.80;13.03;;;;;;;4.00;100.00;101220.84;1776773;80;21131;-60
2021/01/06 06:22:36;;;;;;;23.47;13.38;;;;;;;4.00;100.00;101224.82;1764348;81;21715;-61
2021/01/06 06:25:27;;;;;;;20.40;11.83;;;;;;;3.99;100.00;101229.69;1776355;80;22374;-60
2021/01/06 06:28:24;;;;;;;32.53;13.88;;;;;;;3.97;100.00;101227.48;1764240;81;21113;-61
2021/01/06 06:30:59;;;;;;;25.60;13.15;;;;;;;3.92;100.00;101238.97;1775208;80;21063;-60
2021/01/06 06:33:31;;;;;;;32.85;15.70;;;;;;;3.88;100.00;101230.14;1761626;81;21093;-61
2021/01/06 06:36:10;;;;;;;32.50;17.52;;;;;;;3.84;100.00;101232.33;1776747;80;21056;-60
2021/01/06 06:38:45;;;;;;;32.95;16.82;;;;;;;3.82;100.00;101244.71;1776804;80;21703;-60
2021/01/06 06:41:29;;;;;;;38.08;16.35;;;;;;;3.80;100.00;101241.17;1789579;80;21153;-60
2021/01/06 06:44:26;;;;;;;37.55;16.60;;;;;;;3.81;100.00;101240.28;1810367;79;21102;-61
2021/01/06 06:47:13;;;;;;;31.25;15.20;;;;;;;3.78;100.00;101242.94;1810356;79;21134;-60
2021/01/06 06:50:30;;;;;;;24.43;13.40;;;;;;;3.81;100.00;101248.25;1789486;79;21504;-61
2021/01/06 06:53:45;;;;;;;30.10;13.10;;;;;;;3.82;100.00;101235.42;1810531;79;21209;-61
2021/01/06 06:56:45;;;;;;;28.90;13.65;;;;;;;3.81;100.00;101249.57;1810455;78;21142;-60
2021/01/06 06:59:27;;;;;;;22.17;13.15;;;;;;;3.83;100.00;101258.41;1810467;79;21555;-60
2021/01/06 07:01:59;;;;;;;25.82;13.72;;;;;;;3.84;100.00;101256.20;1789479;80;21179;-60
2021/01/06 07:04:47;;;;;;;24.80;14.30;;;;;;;3.86;100.00;101262.39;1804320;79;21082;-60
2021/01/06 07:07:36;;;;;;;29.60;15.05;;;;;;;3.89;100.00;101266.41;1789663;79;21371;-60
2021/01/06 07:10:24;;;;;;;28.38;14.78;;;;;;;3.95;100.00;101267.72;1810449;79;21094;-60
2021/01/06 07:12:54;;;;;;;29.60;15.65;;;;;;;4.00;100.00;101269.93;1810551;79;21067;-60
2021/01/06 07:15:28;;;;;;;28.83;15.90;;;;;;;4.09;100.00;101273.46;1810351;79;21217;-61
2021/01/06 07:17:55;;;;;;;28.20;16.27;;;;;;;4.17;100.00;101269.06;1804566;77;21154;-61
2021/01/06 07:20:37;;;;;;;28.73;15.48;;;;;;;4.26;100.00;101279.66;1789530;80;21564;-60
2021/01/06 07:23:17;;;;;;;24.50;14.35;;;;;;;4.34;100.00;101283.64;1810538;79;21142;-60
2021/01/06 07:25:58;;;;;;;25.55;14.73;;;;;;;4.43;100.00;101282.33;1789626;80;21106;-61
2021/01/06 07:28:26;;;;;;;26.12;14.58;;;;;;;4.52;100.00;101277.42;1810291;79;21130;-60
2021/01/06 07:30:55;;;;;;;25.40;13.85;;;;;;;4.58;100.00;101277.44;1789692;80;21126;-61
2021/01/06 07:33:40;;;;;;;26.23;13.60;;;;;;;4.62;100.00;101279.62;1810479;79;21562;-59
2021/01/06 07:36:10;;;;;;;23.62;14.07;;;;;;;4.69;100.00;101283.16;1809772;79;21161;-61
2021/01/06 07:38:38;;;;;;;21.85;12.45;;;;;;;4.77;100.00;101288.03;1772512;79;21482;-60
2021/01/06 07:41:05;;;;;;;21.50;12.78;;;;;;;4.87;100.00;101292.88;1825201;78;21131;-60
2021/01/06 07:43:36;;;;;;;26.48;14.50;;;;;;;4.96;100.00;101286.62;1825080;78;21127;-60
2021/01/06 07:46:18;;;;;;;25.32;15.48;;;;;;;5.08;100.00;101285.27;1825271;78;22320;-60
2021/01/06 07:49:06;;;;;;;23.60;13.28;;;;;;;5.21;100.00;101286.56;1825147;78;21126;-60
2021/01/06 07:51:51;;;;;;;21.25;12.98;;;;;;;5.32;100.00;101284.73;1824898;78;21575;-61
2021/01/06 07:54:31;;;;;;;;;;;;;;;5.42;100.00;101290.45;1827997;78;21080;-60
2021/01/06 07:57:14;;;;;;;23.55;12.40;;;;;;;5.55;100.00;101290.38;1825126;78;20287;-61
2021/01/06 07:59:58;;;;;;;19.82;11.48;;;;;;;5.66;100.00;101300.53;1794894;78;21271;-61
2021/01/06 08:02:39;;;;;;;21.73;12.07;;;;;;;5.80;100.00;101295.55;1795635;78;21156;-60
2021/01/06 08:05:26;;;;;;;20.55;11.73;;;;;;;5.92;100.00;101300.80;1796438;78;21579;-61
2021/01/06 08:08:10;;;;;;;19.98;11.10;;;;;;;6.02;100.00;101297.20;1825158;78;21135;-60
2021/01/06 08:10:42;;;;;;;20.48;12.25;;;;;;;6.14;100.00;101307.34;1825325;78;22216;-61
2021/01/06 08:13:15;;;;;;;17.45;10.45;;;;;;;6.25;100.00;101308.59;1825138;78;21149;-61
2021/01/06 08:15:44;;;;;;;18.10;11.65;;;;;;;6.33;100.00;101305.87;1825146;78;21024;-62
2021/01/06 08:18:43;;;;;;;22.50;11.45;;;;;;;6.38;100.00;101305.38;1825178;78;21175;-62
2021/01/06 08:21:25;;;;;;;19.73;11.95;;;;;;;6.48;100.00;101320.36;1825187;78;21096;-62
2021/01/06 08:24:10;;;;;;;18.85;11.57;;;;;;;6.54;100.00;101316.34;1795551;78;21154;-61
2021/01/06 08:26:50;;;;;;;20.82;11.83;;;;;;;6.61;100.00;101308.28;1776783;78;21944;-62
2021/01/06 08:29:28;;;;;;;18.50;11.08;;;;;;;6.69;100.00;101307.30;1828348;78;21472;-62
2021/01/06 08:32:19;;;;;;;17.48;10.75;;;;;;;6.79;100.00;101309.86;1828296;78;21143;-62
2021/01/06 08:35:02;;;;;;;16.75;10.43;;;;;;;6.86;100.00;101312.92;1828494;78;22327;-60
2021/01/06 08:37:35;;;;;;;19.23;10.43;;;;;;;6.94;100.00;101306.15;1817984;78;21035;-62
2021/01/06 08:40:06;;;;;;;15.83;9.78;;;;;;;7.01;100.00;101306.53;1762102;81;21386;-61
2021/01/06 08:42:45;;;;;;;17.62;10.13;;;;;;;7.19;100.00;101310.77;1803852;79;21151;-62
2021/01/06 08:45:32;;;;;;;21.55;10.68;;;;;;;7.19;100.00;101310.77;1762359;81;21159;-61
2021/01/06 08:48:30;;;;;;;17.05;10.00;;;;;;;7.27;100.00;101315.54;1807345;79;21504;-62
2021/01/06 08:51:13;;;;;;;19.73;11.05;;;;;;;7.37;100.00;101324.31;1807366;79;21484;-61
2021/01/06 08:53:44;;;;;;;19.17;10.60;;;;;;;7.45;99.96;101315.78;1758426;81;21471;-62
2021/01/06 08:56:25;;;;;;;17.10;10.25;;;;;;;7.58;98.73;101312.50;1807196;79;21165;-62
2021/01/06 08:58:55;;;;;;;16.27;9.20;;;;;;;7.66;98.17;101317.73;1806799;79;21135;-61
2021/01/06 09:01:44;;;;;;;15.65;9.73;;;;;;;7.73;97.99;101317.17;1762540;81;21593;-62
2021/01/06 09:04:16;;;;;;;16.65;9.60;;;;;;;7.73;97.99;101317.17;1807326;79;21418;-61
2021/01/06 09:06:54;;;;;;;20.80;10.98;;;;;;;7.83;97.49;101316.59;1780932;79;21282;-61
2021/01/06 09:09:42;;;;;;;17.15;10.55;;;;;;;7.88;96.82;101320.97;1782110;79;21098;-61
2021/01/06 09:12:38;;;;;;;24.00;11.90;;;;;;;7.96;95.90;101324.00;1762353;81;21102;-62
2021/01/06 09:15:07;;;;;;;;;;;;;;;7.99;95.19;101327.48;1809703;79;21169;-61
2021/01/06 09:17:46;;;;;;;17.37;10.10;;;;;;;8.06;94.74;101335.39;1793686;80;20247;-62
2021/01/06 09:20:21;;;;;;;13.70;9.08;;;;;;;8.09;94.32;101335.37;1807196;79;22134;-62
2021/01/06 09:22:49;;;;;;;18.35;9.95;;;;;;;8.13;94.38;101343.77;1806656;79;21076;-62
2021/01/06 09:25:21;;;;;;;17.67;10.25;;;;;;;8.19;93.93;101336.98;1758820;81;21094;-61
2021/01/06 09:27:50;;;;;;;14.55;9.20;;;;;;;8.25;93.97;101330.20;1804100;79;21059;-62
2021/01/06 09:30:29;;;;;;;13.78;9.20;;;;;;;8.33;93.49;101334.56;1756770;81;21083;-62
2021/01/06 09:32:59;;;;;;;14.83;9.55;;;;;;;8.40;93.18;101332.20;1804163;79;21659;-62
2021/01/06 09:35:32;;;;;;;14.35;8.55;;;;;;;8.48;92.72;101330.74;1756609;81;21129;-63
2021/01/06 09:38:26;;;;;;;13.95;9.38;;;;;;;8.54;91.67;101326.66;1766098;80;21059;-62
2021/01/06 09:40:58;;;;;;;15.88;9.45;;;;;;;8.57;91.52;101319.48;1764361;81;21128;-60
2021/01/06 09:43:40;;;;;;;15.65;9.43;;;;;;;8.65;90.56;101331.81;1746923;80;21123;-62
2021/01/06 09:46:54;;;;;;;14.10;9.23;;;;;;;8.69;90.18;101318.81;1776819;80;22270;-62
2021/01/06 09:49:28;;;;;;;13.20;8.53;;;;;;;8.72;90.01;101325.00;1764159;81;21132;-61
2021/01/06 09:51:56;;;;;;;16.30;9.33;;;;;;;8.77;89.90;101322.69;1776813;80;21098;-62
2021/01/06 09:54:24;;;;;;;13.22;8.75;;;;;;;8.82;89.85;101320.37;1732784;81;21149;-61
2021/01/06 09:56:53;;;;;;;11.75;7.25;;;;;;;8.89;89.78;101322.00;1775779;80;21150;-62
2021/01/06 09:59:28;;;;;;;12.47;7.87;;;;;;;8.95;89.27;101318.34;1764184;81;21375;-62
2021/01/06 10:02:09;;;;;;;;;;;;;;;8.98;87.74;101318.27;1778354;80;21202;-63
2021/01/06 10:04:39;;;;;;;13.08;7.80;;;;;;;9.00;87.20;101313.77;1795690;79;20208;-62
2021/01/06 10:07:28;;;;;;;12.73;8.53;;;;;;;9.03;86.78;101318.20;1776725;80;21136;-62
2021/01/06 10:10:13;;;;;;;11.38;8.20;;;;;;;9.06;87.13;101317.23;1776860;80;21111;-62
2021/01/06 10:13:05;;;;;;;13.00;8.28;;;;;;;9.14;87.12;101319.33;1764377;81;21330;-62
2021/01/06 10:16:00;;;;;;;16.02;7.97;;;;;;;9.17;86.61;101320.16;1750662;80;21134;-62
2021/01/06 10:19:04;;;;;;;9.58;6.75;;;;;;;9.16;85.76;101317.02;1764467;81;21145;-61
2021/01/06 10:21:58;;;;;;;10.58;6.58;;;;;;;9.18;85.83;101318.34;1776913;80;21178;-62
2021/01/06 10:24:40;;;;;;;11.03;7.05;;;;;;;9.21;85.15;101316.08;1778766;80;21095;-61
2021/01/06 10:27:25;;;;;;;11.43;6.53;;;;;;;9.22;84.87;101311.15;1762387;81;21375;-62
2021/01/06 10:29:55;;;;;;;11.48;6.65;;;;;;;9.26;84.40;101319.53;1793711;80;21983;-61
2021/01/06 10:32:49;;;;;;;9.68;5.78;;;;;;;9.30;84.30;101317.21;1761866;81;21200;-62
2021/01/06 10:35:36;;;;;;;9.15;5.55;;;;;;;9.36;84.12;101315.73;1793670;80;21043;-62
2021/01/06 10:38:33;;;;;;;9.25;5.95;;;;;;;9.41;83.79;101319.22;1761207;81;21153;-62
2021/01/06 10:41:20;;;;;;;7.95;5.58;;;;;;;9.48;83.62;101317.75;1774738;80;21378;-61
2021/01/06 10:43:53;;;;;;;11.05;6.58;;;;;;;9.55;83.82;101317.59;1760526;81;21113;-61
2021/01/06 10:46:49;;;;;;;9.13;5.60;;;;;;;9.62;83.02;101318.34;1774871;80;21503;-61
2021/01/06 10:49:25;;;;;;;12.15;5.62;;;;;;;9.65;82.76;101310.23;1760454;81;21069;-61
2021/01/06 10:52:00;;;;;;;7.55;4.75;;;;;;;9.69;82.73;101310.59;1774759;80;21099;-62
2021/01/06 10:54:57;;;;;;;6.67;4.28;;;;;;;9.74;82.19;101311.83;1760567;81;21236;-61
2021/01/06 10:57:34;;;;;;;9.38;5.00;;;;;;;9.77;80.78;101314.87;1774684;80;21143;-61
2021/01/06 11:00:18;;;;;;;7.95;4.60;;;;;;;9.78;79.60;101313.95;1760715;81;21224;-62
2021/01/06 11:03:18;;;;;;;12.50;5.67;;;;;;;9.80;79.60;101313.47;1774645;80;21162;-62
2021/01/06 11:05:57;;;;;;;8.38;4.65;;;;;;;9.81;79.95;101312.10;1755127;81;21137;-63
2021/01/06 11:08:53;;;;;;;7.65;5.12;;;;;;;9.84;80.06;101312.03;1774625;80;21378;-62
2021/01/06 11:11:39;;;;;;;9.53;4.65;;;;;;;9.88;79.90;101311.51;1760669;81;21061;-61
2021/01/06 11:14:49;;;;;;;7.15;4.20;;;;;;;9.89;78.52;101315.95;1774783;80;21051;-61
2021/01/06 11:17:23;;;;;;;6.78;4.17;;;;;;;9.91;78.15;101316.79;1760579;81;21066;-61
2021/01/06 11:20:00;;;;;;;9.75;5.10;;;;;;;9.95;77.82;101317.61;1774812;80;21076;-62
2021/01/06 11:22:43;;;;;;;11.03;6.42;;;;;;;9.99;77.98;101316.62;1760553;81;21220;-61
2021/01/06 11:25:50;;;;;;;9.80;6.20;;;;;;;10.00;78.42;101308.53;1774531;80;21083;-62
2021/01/06 11:28:29;;;;;;;12.33;5.85;;;;;;;10.01;78.99;101314.30;1760636;81;21494;-62
2021/01/06 11:31:21;;;;;;;11.55;5.80;;;;;;;9.99;79.01;101313.47;1774684;80;21111;-61
2021/01/06 11:34:13;;;;;;;13.25;5.83;;;;;;;9.95;78.61;101314.45;1760574;81;21034;-61
2021/01/06 11:36:53;;;;;;;9.45;5.65;;;;;;;9.92;78.88;101311.86;1775002;80;21696;-62
2021/01/06 11:39:42;;;;;;;11.35;6.08;;;;;;;9.92;78.83;101313.20;1786986;80;21088;-64
2021/01/06 11:42:14;;;;;;;8.25;5.28;;;;;;;9.95;78.83;101317.14;1787128;80;21084;-62
2021/01/06 11:45:09;;;;;;;9.63;5.53;;;;;;;9.95;79.39;101318.48;1787067;80;21229;-61
2021/01/06 11:47:56;;;;;;;13.13;6.17;;;;;;;9.97;79.36;101317.98;1787090;80;21217;-62
2021/01/06 11:50:45;;;;;;;11.73;6.92;;;;;;;9.99;78.95;101310.78;1787184;80;21361;-62
2021/01/06 11:53:32;;;;;;;12.47;7.80;;;;;;;9.96;79.00;101313.55;1787041;80;21179;-62
2021/01/06 11:56:20;;;;;;;17.10;7.42;;;;;;;9.84;79.08;101315.19;1787150;80;21076;-62
2021/01/06 11:59:19;;;;;;;13.53;6.70;;;;;;;9.67;79.62;101315.09;1787223;80;21462;-62
2021/01/06 12:02:10;;;;;;;12.23;6.95;;;;;;;9.51;80.17;101315.00;1787110;80;21052;-62
2021/01/06 12:05:12;;;;;;;11.50;6.80;;;;;;;9.36;80.79;101315.73;1787176;80;21204;-61
2021/01/06 12:08:14;;;;;;;16.87;6.47;;;;;;;9.26;80.96;101311.50;1787100;80;21121;-62
2021/01/06 12:11:07;;;;;;;15.65;7.28;;;;;;;9.14;81.07;101313.50;1757290;80;21221;-61